Time;durP1;ratioP1;P1;durP2;ratioP2;P2;SDS_P1;SDS_P2;PMS_P1;PMS_P2;Temp;Humidity;BMP_temperature;BMP_pressure;BME280_temperature;BME280_humidity;BME280_pressure;Samples;Min_cycle;Max_cycle;Signal;HPM_P1;HPM_P2
2022/06/15 00:00:09;;;;;;;11.07;3.00;;;;;;;17.50;66.90;101470.34;5056956;28;20762;-74
2022/06/15 00:02:36;;;;;;;14.30;3.95;;;;;;;17.44;67.58;101460.88;5059220;28;20179;-73
2022/06/15 00:05:03;;;;;;;11.93;3.13;;;;;;;17.42;67.36;101460.47;5053987;28;20140;-75
2022/06/15 00:07:30;;;;;;;12.65;3.17;;;;;;;17.38;66.98;101453.38;5058630;28;20048;-72
2022/06/15 00:09:56;;;;;;;13.90;3.83;;;;;;;17.34;67.88;101442.22;5056228;28;20075;-74
2022/06/15 00:12:22;;;;;;;9.43;2.90;;;;;;;17.29;68.67;101447.50;5052348;28;20143;-72
2022/06/15 00:14:49;;;;;;;11.88;3.25;;;;;;;17.25;68.59;101444.78;5060346;28;20096;-72
2022/06/15 00:17:16;;;;;;;10.95;3.10;;;;;;;17.21;68.33;101454.47;5048394;28;20044;-72
2022/06/15 00:19:42;;;;;;;10.90;3.35;;;;;;;17.16;70.05;101444.53;5055657;28;20063;-73
2022/06/15 00:22:09;;;;;;;10.82;3.42;;;;;;;17.14;70.56;101451.75;5055610;28;20052;-73
2022/06/15 00:24:35;;;;;;;17.98;4.72;;;;;;;17.13;71.02;101450.19;5055219;28;20054;-73
2022/06/15 00:27:03;;;;;;;14.63;3.45;;;;;;;17.09;71.53;101444.66;5060676;28;20169;-74
2022/06/15 00:29:30;;;;;;;11.27;3.50;;;;;;;17.09;70.77;101453.03;5060992;28;20127;-72
2022/06/15 00:31:57;;;;;;;12.95;4.07;;;;;;;17.04;69.86;101449.94;5063850;28;20072;-75
2022/06/15 00:34:23;;;;;;;21.35;3.97;;;;;;;17.02;70.21;101452.34;5058820;28;20053;-72
2022/06/15 00:36:50;;;;;;;11.43;3.88;;;;;;;16.99;71.94;101439.22;5052893;28;20041;-73
2022/06/15 00:39:16;;;;;;;9.73;3.22;;;;;;;17.00;70.74;101447.19;5055566;28;20056;-72
2022/06/15 00:41:43;;;;;;;13.30;4.00;;;;;;;16.95;71.70;101435.69;5059967;28;20139;-75
2022/06/15 00:44:19;;;;;;;9.40;3.47;;;;;;;16.87;73.36;101426.63;5057239;28;20044;-74
2022/06/15 00:46:48;;;;;;;12.95;3.63;;;;;;;16.84;71.69;101432.28;5062029;28;20048;-75
2022/06/15 00:49:23;;;;;;;13.15;4.70;;;;;;;16.78;73.92;101426.34;5056938;28;20048;-74
2022/06/15 00:51:55;;;;;;;11.30;3.53;;;;;;;16.76;72.85;101425.19;5058077;28;20044;-73
2022/06/15 00:54:23;;;;;;;11.43;3.22;;;;;;;16.71;72.21;101431.28;5055358;28;20055;-73
2022/06/15 00:56:52;;;;;;;9.75;3.38;;;;;;;16.71;73.05;101434.06;5061569;28;20139;-74
2022/06/15 00:59:32;;;;;;;15.98;3.88;;;;;;;16.67;73.55;101436.91;5051585;28;20044;-73
2022/06/15 01:01:58;;;;;;;10.10;3.75;;;;;;;16.63;73.25;101435.38;5054075;28;20055;-74
2022/06/15 01:04:33;;;;;;;9.30;3.75;;;;;;;16.59;73.57;101434.63;5060504;28;20047;-74
2022/06/15 01:07:03;;;;;;;13.07;3.78;;;;;;;16.59;73.86;101434.63;5057089;28;20062;-75
2022/06/15 01:09:35;;;;;;;15.48;3.95;;;;;;;16.57;74.09;101437.84;5060039;28;20064;-72
2022/06/15 01:12:40;;;;;;;13.25;3.95;;;;;;;16.51;75.62;101439.56;5056786;28;20052;-76
2022/06/15 01:15:36;;;;;;;11.55;4.30;;;;;;;16.44;76.14;101436.06;5039251;28;20051;-75
2022/06/15 01:18:09;;;;;;;;;;;;;;;16.42;77.79;101438.44;5059876;28;20575;-73
2022/06/15 01:21:06;;;;;;;9.18;3.72;;;;;;;16.36;77.01;101438.13;5055721;28;19924;-73
2022/06/15 01:23:55;;;;;;;10.60;3.88;;;;;;;16.28;77.72;101435.84;5057432;28;20049;-73
2022/06/15 01:26:40;;;;;;;7.85;3.58;;;;;;;16.25;77.67;101431.88;5050742;28;20045;-75
2022/06/15 01:29:36;;;;;;;6.65;3.17;;;;;;;16.18;78.07;101431.19;5054398;28;20049;-76
2022/06/15 01:32:09;;;;;;;12.02;3.85;;;;;;;16.13;77.16;101434.44;5053231;28;20268;-73
2022/06/15 01:34:45;;;;;;;8.85;3.50;;;;;;;16.09;77.18;101431.69;5049684;28;20149;-73
2022/06/15 01:37:24;;;;;;;11.80;3.72;;;;;;;16.10;76.87;101436.06;5049873;28;20048;-73
2022/06/15 01:39:58;;;;;;;14.40;4.03;;;;;;;16.02;79.40;101426.19;5049779;28;20060;-73
2022/06/15 01:42:34;;;;;;;13.55;4.20;;;;;;;16.00;78.01;101430.63;5053012;28;20072;-76
2022/06/15 01:45:03;;;;;;;;;;;;;;;15.99;82.76;101426.25;5057406;28;20051;-75
2022/06/15 01:47:32;;;;;;;12.52;3.80;;;;;;;15.90;81.01;101434.31;5059202;28;19924;-72
2022/06/15 01:50:01;;;;;;;13.32;4.10;;;;;;;15.85;79.50;101431.97;5052996;28;20055;-73
2022/06/15 01:52:36;;;;;;;9.02;3.80;;;;;;;15.84;82.69;101430.41;5052470;28;20572;-75
2022/06/15 01:55:12;;;;;;;13.40;4.18;;;;;;;15.81;83.14;101432.03;5059025;28;20071;-73
2022/06/15 01:57:41;;;;;;;18.90;4.55;;;;;;;15.81;82.00;101436.81;5053215;28;20049;-73
2022/06/15 02:00:10;;;;;;;12.02;4.28;;;;;;;15.76;81.84;101437.28;5056339;28;20053;-73
2022/06/15 02:03:02;;;;;;;11.35;4.15;;;;;;;15.71;82.14;101432.94;5056284;28;20053;-72
2022/06/15 02:05:45;;;;;;;12.32;3.83;;;;;;;15.65;83.87;101429.00;5061592;28;20072;-74
2022/06/15 02:08:15;;;;;;;13.25;3.88;;;;;;;15.64;82.76;101429.41;5052560;28;20059;-75
2022/06/15 02:11:11;;;;;;;15.10;4.40;;;;;;;15.57;85.26;101428.28;5053443;28;20049;-75
2022/06/15 02:13:50;;;;;;;13.60;4.03;;;;;;;15.56;82.92;101427.91;5057629;28;20052;-72
2022/06/15 02:16:26;;;;;;;12.35;4.25;;;;;;;15.55;83.11;101413.16;5054902;28;20068;-72
2022/06/15 02:18:55;;;;;;;13.32;3.92;;;;;;;15.53;82.92;101416.38;5059051;28;20672;-72
2022/06/15 02:21:24;;;;;;;13.60;4.32;;;;;;;15.48;83.52;101418.81;5058712;28;20477;-73
2022/06/15 02:23:56;;;;;;;9.32;3.78;;;;;;;15.47;82.85;101420.03;5061463;28;20048;-73
2022/06/15 02:26:25;;;;;;;14.20;4.47;;;;;;;15.43;82.80;101410.94;5057104;28;20655;-72
2022/06/15 02:28:56;;;;;;;11.98;4.35;;;;;;;15.46;82.54;101418.47;5052502;28;20131;-72
2022/06/15 02:31:23;;;;;;;11.77;4.15;;;;;;;15.43;82.96;101420.06;5058697;28;20120;-72
2022/06/15 02:33:54;;;;;;;11.60;4.55;;;;;;;15.38;84.11;101411.34;5059304;28;20049;-74
2022/06/15 02:36:21;;;;;;;13.35;4.65;;;;;;;15.34;82.94;101416.16;5066349;28;20048;-73
2022/06/15 02:38:51;;;;;;;10.52;4.38;;;;;;;15.30;83.51;101416.16;5059383;28;20135;-72
2022/06/15 02:41:19;;;;;;;12.63;4.55;;;;;;;15.28;84.07;101412.22;5063488;28;20068;-73
2022/06/15 02:43:49;;;;;;;12.38;4.65;;;;;;;15.27;84.48;101413.44;5059028;28;20059;-72
2022/06/15 02:46:17;;;;;;;13.43;4.80;;;;;;;15.24;85.15;101406.69;5053506;28;20071;-74
2022/06/15 02:48:45;;;;;;;11.73;4.75;;;;;;;15.22;84.83;101409.09;5056388;28;20726;-74
2022/06/15 02:51:18;;;;;;;13.27;4.20;;;;;;;15.17;85.74;101409.53;5055703;28;20055;-73
2022/06/15 02:53:48;;;;;;;15.30;4.50;;;;;;;15.17;86.11;101408.75;5060980;28;20052;-73
2022/06/15 02:56:16;;;;;;;13.77;4.65;;;;;;;15.14;85.84;101415.94;5060258;28;20068;-71
2022/06/15 02:58:46;;;;;;;17.65;4.70;;;;;;;15.13;85.53;101414.34;5057289;28;20152;-73
2022/06/15 03:01:13;;;;;;;14.18;4.95;;;;;;;15.11;85.36;101413.97;5049607;28;20135;-73
2022/06/15 03:03:40;;;;;;;10.85;4.72;;;;;;;15.08;85.76;101406.44;5057456;28;20060;-73
2022/06/15 03:06:16;;;;;;;15.13;5.50;;;;;;;15.10;85.42;101409.59;5055829;28;20823;-72
2022/06/15 03:08:43;;;;;;;16.25;4.50;;;;;;;15.08;86.22;101412.00;5060804;28;20410;-75
2022/06/15 03:11:10;;;;;;;7.88;4.28;;;;;;;15.06;86.24;101411.59;5059910;28;20139;-73
2022/06/15 03:13:37;;;;;;;16.92;5.25;;;;;;;15.06;86.79;101411.59;5059067;28;20057;-73
2022/06/15 03:16:04;;;;;;;17.42;5.53;;;;;;;15.00;87.07;101406.91;5057655;28;20549;-73
2022/06/15 03:18:31;;;;;;;16.63;4.93;;;;;;;14.97;89.01;101416.88;5055430;28;20041;-73
2022/06/15 03:20:59;;;;;;;18.20;6.65;;;;;;;14.94;88.96;101419.69;5060918;28;20130;-74
2022/06/15 03:23:27;;;;;;;17.35;5.35;;;;;;;14.94;88.46;101420.47;5058102;28;20127;-73
2022/06/15 03:25:59;;;;;;;11.38;4.90;;;;;;;14.97;88.14;101418.88;5061656;28;20930;-75
2022/06/15 03:28:26;;;;;;;14.63;4.97;;;;;;;14.97;87.29;101411.31;5063735;28;20627;-73
2022/06/15 03:30:53;;;;;;;12.30;4.45;;;;;;;14.99;88.68;101413.69;5059761;28;20052;-72
2022/06/15 03:33:19;;;;;;;15.40;4.57;;;;;;;14.97;87.84;101414.09;5060835;28;20056;-74
2022/06/15 03:35:47;;;;;;;14.55;4.57;;;;;;;14.98;87.94;101407.31;5062590;28;20052;-75
2022/06/15 03:38:14;;;;;;;14.00;4.88;;;;;;;14.95;88.86;101408.13;5058443;28;20094;-73
2022/06/15 03:40:44;;;;;;;11.55;4.47;;;;;;;14.97;89.18;101407.72;5062189;28;20047;-72
2022/06/15 03:43:10;;;;;;;13.30;4.85;;;;;;;14.98;88.33;101415.66;5063205;28;20565;-76
2022/06/15 03:45:38;;;;;;;11.95;4.40;;;;;;;14.97;88.52;101405.72;5061500;28;20155;-73
2022/06/15 03:48:05;;;;;;;15.95;5.45;;;;;;;14.96;88.02;101404.13;5058813;28;20044;-73
2022/06/15 03:50:33;;;;;;;13.40;4.72;;;;;;;14.96;87.47;101404.13;5059187;28;20052;-75
2022/06/15 03:53:01;;;;;;;15.00;5.30;;;;;;;14.97;89.11;101407.72;5064719;28;20044;-73
2022/06/15 03:55:28;;;;;;;15.80;4.90;;;;;;;14.97;89.76;101405.72;5059574;28;20140;-73
2022/06/15 03:57:55;;;;;;;17.27;5.45;;;;;;;14.97;90.59;101408.50;5049087;28;20053;-74
2022/06/15 04:00:24;;;;;;;16.35;5.22;;;;;;;14.97;90.36;101402.94;5058253;28;20095;-73
2022/06/15 04:02:52;;;;;;;12.93;4.85;;;;;;;14.95;89.59;101402.56;5051896;28;20088;-73
2022/06/15 04:05:41;;;;;;;15.43;4.70;;;;;;;15.00;89.93;101412.47;5060113;28;20490;-72
2022/06/15 04:10:59;;;;;;;19.52;5.18;;;;;;;15.03;89.04;101409.66;5053292;28;20134;-72
2022/06/15 04:13:26;;;;;;;13.88;4.97;;;;;;;15.07;88.23;101416.00;5059332;28;20148;-72
2022/06/15 04:15:53;;;;;;;13.30;4.88;;;;;;;15.10;88.91;101406.81;5054781;28;20528;-71
2022/06/15 04:18:20;;;;;;;16.50;5.20;;;;;;;15.08;89.38;101409.22;5059636;28;20528;-71
2022/06/15 04:20:46;;;;;;;13.02;4.80;;;;;;;15.11;89.15;101410.38;5059050;28;20592;-72
2022/06/15 04:23:15;;;;;;;10.35;4.25;;;;;;;15.15;90.25;101416.72;5062805;28;20056;-73
2022/06/15 04:25:47;;;;;;;14.90;4.82;;;;;;;15.17;89.31;101412.34;5058551;28;20140;-73
2022/06/15 04:28:16;;;;;;;12.50;4.93;;;;;;;15.18;89.79;101419.47;5053520;28;20539;-74
2022/06/15 04:30:42;;;;;;;12.23;5.50;;;;;;;15.19;89.46;101423.84;5055331;28;20696;-72
2022/06/15 04:33:12;;;;;;;14.52;5.18;;;;;;;15.22;89.00;101411.06;5056853;28;20049;-72
2022/06/15 04:35:39;;;;;;;12.52;5.30;;;;;;;15.22;90.17;101405.50;5058456;28;20057;-72
2022/06/15 04:38:06;;;;;;;14.90;4.85;;;;;;;15.28;89.29;101417.78;5058077;28;20043;-74
2022/06/15 04:40:34;;;;;;;11.80;4.85;;;;;;;15.29;89.98;101417.38;5055719;28;20087;-72
2022/06/15 04:43:02;;;;;;;14.10;5.38;;;;;;;15.33;89.32;101418.13;5052338;28;20051;-73
2022/06/15 04:45:28;;;;;;;15.35;5.22;;;;;;;15.37;90.41;101424.53;5054472;28;20568;-73
2022/06/15 04:47:55;;;;;;;14.50;6.68;;;;;;;15.43;89.92;101420.06;5047542;28;20044;-73
2022/06/15 04:50:22;;;;;;;11.63;4.80;;;;;;;15.49;89.10;101412.84;5053566;28;20048;-72
2022/06/15 04:52:48;;;;;;;15.55;5.22;;;;;;;15.57;88.76;101421.13;5054481;28;20071;-74
2022/06/15 04:55:19;;;;;;;11.60;4.97;;;;;;;15.65;89.22;101420.63;5065472;28;20048;-72
2022/06/15 04:57:46;;;;;;;15.75;5.10;;;;;;;15.73;88.79;101422.16;5056662;28;20059;-72
2022/06/15 05:00:16;;;;;;;13.40;4.65;;;;;;;15.80;88.74;101424.06;5051855;28;20095;-72
2022/06/15 05:02:42;;;;;;;14.48;5.35;;;;;;;15.83;88.60;101417.66;5057058;28;20052;-72
2022/06/15 05:05:10;;;;;;;12.90;4.90;;;;;;;15.94;87.51;101415.53;5050835;28;20131;-73
2022/06/15 05:07:36;;;;;;;16.02;4.88;;;;;;;15.95;88.23;101419.91;5051159;28;20045;-71
2022/06/15 05:10:04;;;;;;;16.40;4.80;;;;;;;16.02;87.18;101426.19;5057011;28;20086;-72
2022/06/15 05:12:30;;;;;;;9.80;4.43;;;;;;;16.04;87.42;101420.19;5058946;28;20714;-71
2022/06/15 05:14:57;;;;;;;12.38;5.05;;;;;;;16.08;87.29;101416.16;5053711;28;20068;-72
2022/06/15 05:17:30;;;;;;;11.45;4.57;;;;;;;16.16;86.18;101425.25;5053465;28;20120;-72
2022/06/15 05:19:57;;;;;;;17.88;5.55;;;;;;;16.22;86.29;101417.97;5045037;28;20088;-73
2022/06/15 05:22:23;;;;;;;15.20;4.97;;;;;;;16.33;85.53;101422.19;5055102;28;20059;-71
2022/06/15 05:24:50;;;;;;;12.15;4.78;;;;;;;16.40;85.16;101419.31;5057987;28;20052;-71
2022/06/15 05:27:16;;;;;;;11.35;4.50;;;;;;;16.49;85.80;101421.63;5056778;28;20056;-73
2022/06/15 05:29:43;;;;;;;12.25;4.57;;;;;;;16.59;84.95;101420.66;5055735;28;20505;-76
2022/06/15 05:32:10;;;;;;;13.10;5.00;;;;;;;16.64;84.86;101418.19;5045280;28;20131;-73
2022/06/15 05:34:37;;;;;;;18.98;5.97;;;;;;;16.72;84.29;101421.69;5055790;28;20084;-74
2022/06/15 05:37:03;;;;;;;9.65;4.63;;;;;;;16.78;83.90;101423.56;5057210;28;20076;-75
2022/06/15 05:39:30;;;;;;;16.05;5.10;;;;;;;16.85;83.62;101422.69;5056858;28;20132;-73
2022/06/15 05:41:57;;;;;;;9.60;4.65;;;;;;;16.87;83.42;101417.47;5058331;28;20044;-74
2022/06/15 05:47:00;;;;;;;19.42;4.97;;;;;;;16.99;82.58;101422.44;5056585;28;20053;-75
2022/06/15 05:49:28;;;;;;;15.07;5.13;;;;;;;17.09;81.40;101419.50;5051903;28;20132;-73
2022/06/15 05:51:54;;;;;;;18.23;5.00;;;;;;;17.15;81.43;101411.41;5049006;28;20063;-74
2022/06/15 05:54:21;;;;;;;13.00;4.90;;;;;;;17.21;81.52;101418.09;5054426;28;20128;-73
2022/06/15 05:56:47;;;;;;;17.38;5.20;;;;;;;17.28;80.64;101415.19;5049910;28;20053;-74
2022/06/15 05:59:14;;;;;;;11.85;4.75;;;;;;;17.34;80.62;101419.84;5058752;28;20435;-76
2022/06/15 06:01:42;;;;;;;12.80;5.05;;;;;;;17.42;80.65;101423.34;5060852;28;20099;-76
2022/06/15 06:04:13;;;;;;;10.80;4.05;;;;;;;17.47;81.16;101425.63;5060042;28;20146;-74
2022/06/15 06:06:40;;;;;;;18.85;6.25;;;;;;;17.50;79.77;101422.00;5062355;28;20529;-75
2022/06/15 06:09:07;;;;;;;11.57;4.35;;;;;;;17.54;79.79;101429.09;5055007;28;20045;-74
2022/06/15 06:11:33;;;;;;;17.80;5.15;;;;;;;17.62;79.42;101429.78;5065255;28;20052;-73
2022/06/15 06:14:00;;;;;;;16.77;5.30;;;;;;;17.65;79.48;101424.09;5059596;28;20493;-72
2022/06/15 06:16:27;;;;;;;14.27;5.20;;;;;;;17.75;79.02;101422.31;5059372;28;20095;-75
2022/06/15 06:18:55;;;;;;;14.20;5.57;;;;;;;17.81;79.13;101417.78;5049103;28;20041;-78
2022/06/15 06:21:21;;;;;;;14.02;5.57;;;;;;;17.90;78.08;101420.81;5064422;28;20049;-76
2022/06/15 06:23:48;;;;;;;16.65;5.18;;;;;;;17.98;78.25;101422.25;5063452;28;20311;-71
2022/06/15 06:26:31;;;;;;;16.40;6.50;;;;;;;18.03;78.19;101413.38;5063092;28;20063;-75
2022/06/15 06:28:58;;;;;;;14.60;5.28;;;;;;;18.15;76.89;101420.31;5055312;28;20139;-73
2022/06/15 06:31:26;;;;;;;14.18;4.82;;;;;;;18.23;77.11;101419.75;5062821;28;20086;-71
2022/06/15 06:33:53;;;;;;;14.95;6.20;;;;;;;18.34;77.13;101420.28;5060505;28;20068;-73
2022/06/15 06:36:27;;;;;;;13.02;5.30;;;;;;;18.40;76.22;101426.19;5062084;28;20083;-72
2022/06/15 06:38:54;;;;;;;16.63;5.75;;;;;;;18.50;75.46;101425.19;5060417;28;20047;-72
2022/06/15 06:41:23;;;;;;;18.27;6.88;;;;;;;18.58;75.40;101418.19;5052535;28;20055;-72
2022/06/15 06:43:50;;;;;;;13.80;5.10;;;;;;;18.66;75.53;101423.19;5058641;28;20146;-73
2022/06/15 06:46:17;;;;;;;12.07;5.18;;;;;;;18.75;74.78;101428.19;5061592;28;20097;-72
2022/06/15 06:48:45;;;;;;;12.93;5.10;;;;;;;18.80;74.40;101431.25;5060336;28;20057;-72
2022/06/15 06:51:12;;;;;;;14.60;4.90;;;;;;;18.87;74.17;101433.91;5062580;28;20065;-73
2022/06/15 06:53:38;;;;;;;12.50;5.00;;;;;;;18.97;73.82;101432.09;5061442;28;20055;-72
2022/06/15 06:56:07;;;;;;;12.18;5.18;;;;;;;19.09;73.85;101431.38;5054857;28;20057;-72
2022/06/15 06:58:35;;;;;;;20.73;6.18;;;;;;;19.16;72.77;101437.59;5057151;28;20045;-73
2022/06/15 07:01:02;;;;;;;10.27;4.22;;;;;;;19.23;72.25;101433.81;5063405;28;20130;-72
2022/06/15 07:03:29;;;;;;;20.13;7.85;;;;;;;19.29;71.92;101432.09;5055567;28;20135;-73
2022/06/15 07:06:04;;;;;;;12.18;4.63;;;;;;;19.39;72.20;101436.66;5056249;28;20524;-74
2022/06/15 07:08:31;;;;;;;17.92;5.18;;;;;;;19.49;72.14;101438.41;5059129;28;20496;-72
2022/06/15 07:10:59;;;;;;;12.50;4.53;;;;;;;19.59;71.21;101437.31;5055551;28;20048;-75
2022/06/15 07:13:26;;;;;;;14.57;4.80;;;;;;;19.69;70.95;101439.88;5059637;28;20127;-72
2022/06/15 07:15:52;;;;;;;13.98;5.03;;;;;;;19.78;70.19;101431.56;5049276;28;20053;-73
2022/06/15 07:18:19;;;;;;;14.32;4.40;;;;;;;19.80;68.68;101429.13;5058640;28;20051;-73
2022/06/15 07:20:46;;;;;;;18.65;4.78;;;;;;;19.85;69.02;101442.59;5060787;28;20393;-72
2022/06/15 07:23:12;;;;;;;14.32;4.40;;;;;;;19.90;68.39;101441.28;5060360;28;20643;-71
2022/06/15 07:25:39;;;;;;;13.63;4.82;;;;;;;19.94;68.20;101439.94;5058974;28;20082;-73
2022/06/15 07:28:06;;;;;;;13.65;4.60;;;;;;;20.01;67.78;101451.00;5062878;28;20051;-73
2022/06/15 07:30:32;;;;;;;15.13;5.00;;;;;;;20.11;68.07;101449.13;5057383;28;20060;-72
2022/06/15 07:32:59;;;;;;;13.73;5.10;;;;;;;20.23;67.47;101457.63;5053531;28;20572;-72
2022/06/15 07:35:31;;;;;;;12.10;4.82;;;;;;;20.32;67.27;101449.31;5060392;28;20075;-71
2022/06/15 07:37:57;;;;;;;14.75;5.20;;;;;;;20.41;66.29;101448.66;5055306;28;20051;-72
2022/06/15 07:40:44;;;;;;;11.43;4.57;;;;;;;20.50;66.05;101445.16;5055192;28;20049;-73
2022/06/15 07:43:11;;;;;;;11.48;4.20;;;;;;;20.53;65.91;101450.69;5059573;28;20137;-71
2022/06/15 07:45:38;;;;;;;12.32;4.00;;;;;;;20.63;65.85;101438.34;5061576;28;20057;-71
2022/06/15 07:50:50;;;;;;;8.57;3.90;;;;;;;20.86;64.23;101449.28;5055828;28;20096;-71
2022/06/15 07:53:16;;;;;;;11.30;4.15;;;;;;;20.91;63.98;101442.28;5062250;28;20122;-72
2022/06/15 07:55:46;;;;;;;10.93;3.95;;;;;;;21.04;64.10;101431.81;5062025;28;20055;-72
2022/06/15 07:58:13;;;;;;;16.27;4.45;;;;;;;21.18;63.41;101443.41;5052633;28;20441;-70
2022/06/15 08:00:43;;;;;;;10.32;4.30;;;;;;;21.26;63.14;101438.34;5047195;28;20059;-74
2022/06/15 08:03:10;;;;;;;11.45;4.00;;;;;;;21.33;63.07;101438.09;5057379;28;20144;-73
2022/06/15 08:05:44;;;;;;;11.98;3.92;;;;;;;21.43;62.05;101439.75;5071094;28;20136;-72
2022/06/15 08:08:14;;;;;;;12.15;4.18;;;;;;;21.49;61.29;101449.97;5059861;28;20166;-72
2022/06/15 08:10:41;;;;;;;13.50;4.53;;;;;;;21.53;61.20;101444.25;5059852;28;20067;-72
2022/06/15 08:13:08;;;;;;;14.60;5.20;;;;;;;21.61;60.81;101442.75;5058860;28;20055;-71
2022/06/15 08:15:35;;;;;;;10.15;4.10;;;;;;;21.66;60.98;101445.75;5054893;28;20579;-71
2022/06/15 08:18:08;;;;;;;12.63;4.10;;;;;;;21.78;60.54;101447.00;5051375;28;20052;-73
2022/06/15 08:20:41;;;;;;;11.48;3.75;;;;;;;21.94;60.30;101441.19;5050093;28;20048;-76
2022/06/15 08:23:15;;;;;;;18.63;5.43;;;;;;;22.03;59.62;101444.84;5052086;28;20059;-73
2022/06/15 08:25:47;;;;;;;12.18;4.38;;;;;;;22.06;59.83;101443.13;5053625;28;20090;-73
2022/06/15 08:28:18;;;;;;;11.43;3.78;;;;;;;22.16;59.35;101441.97;5051701;28;20045;-73
2022/06/15 08:30:49;;;;;;;14.43;3.92;;;;;;;22.24;58.25;101440.47;5055007;28;20128;-73
2022/06/15 08:33:15;;;;;;;9.85;4.32;;;;;;;22.35;57.65;101441.59;5051375;28;20090;-73
2022/06/15 08:35:42;;;;;;;11.32;4.20;;;;;;;22.44;57.44;101436.03;5053731;28;20052;-73
2022/06/15 08:38:12;;;;;;;11.50;3.65;;;;;;;22.49;56.17;101441.13;5062876;28;20140;-73
2022/06/15 08:40:50;;;;;;;13.73;3.78;;;;;;;22.53;55.94;101436.13;5049950;28;20053;-73
2022/06/15 08:43:34;;;;;;;13.75;4.03;;;;;;;22.54;55.29;101434.06;5053366;28;20139;-76
2022/06/15 08:46:08;;;;;;;14.27;4.40;;;;;;;22.66;55.43;101434.00;5059564;28;20659;-73
2022/06/15 08:49:19;;;;;;;11.13;4.15;;;;;;;22.79;55.14;101437.47;5059900;28;20052;-74
2022/06/15 08:51:53;;;;;;;14.15;4.15;;;;;;;23.00;55.04;101438.66;5033761;28;20087;-72
2022/06/15 08:54:38;;;;;;;8.73;3.83;;;;;;;23.16;52.92;101438.41;5027040;28;20119;-72
2022/06/15 08:57:17;;;;;;;8.80;3.57;;;;;;;23.31;53.38;101433.75;5031207;28;20111;-72
2022/06/15 08:59:50;;;;;;;11.07;3.60;;;;;;;23.52;53.54;101437.72;5030644;28;20431;-72
2022/06/15 09:02:25;;;;;;;12.57;4.03;;;;;;;23.61;52.11;101441.34;5029970;28;20076;-73
2022/06/15 09:05:07;;;;;;;11.23;4.22;;;;;;;23.68;52.03;101435.38;5020083;28;20203;-73
2022/06/15 09:08:00;;;;;;;14.13;3.58;;;;;;;23.79;51.99;101434.91;5019377;28;20795;-72
2022/06/15 09:10:32;;;;;;;10.13;3.70;;;;;;;23.92;51.62;101438.34;5033727;28;20140;-71
2022/06/15 09:13:02;;;;;;;10.30;3.20;;;;;;;24.00;51.04;101429.09;5032984;28;20163;-72
2022/06/15 09:15:54;;;;;;;11.50;3.53;;;;;;;24.06;49.68;101434.94;5032933;28;20045;-71
2022/06/15 09:18:29;;;;;;;11.68;3.78;;;;;;;24.11;50.22;101437.13;5037610;28;20058;-72
2022/06/15 09:20:59;;;;;;;15.05;3.30;;;;;;;24.14;49.27;101442.63;5034899;28;20539;-73
2022/06/15 09:23:54;;;;;;;6.07;3.10;;;;;;;24.12;47.61;101435.84;5051687;28;20135;-72
2022/06/15 09:26:22;;;;;;;9.40;3.63;;;;;;;24.23;48.54;101439.75;5048601;28;20515;-72
2022/06/15 09:29:01;;;;;;;11.40;4.10;;;;;;;24.29;47.49;101443.53;5055671;28;20044;-72
2022/06/15 09:31:40;;;;;;;16.55;3.83;;;;;;;24.41;47.50;101450.25;5057669;28;20049;-75
2022/06/15 09:34:10;;;;;;;12.63;4.03;;;;;;;24.46;47.46;101444.75;5055354;28;20756;-73
2022/06/15 09:36:46;;;;;;;9.23;3.47;;;;;;;24.47;47.28;101437.81;5052340;28;20055;-72
2022/06/15 09:39:13;;;;;;;8.82;3.15;;;;;;;24.64;47.18;101436.22;5058963;28;20048;-70
2022/06/15 09:41:59;;;;;;;9.60;3.50;;;;;;;24.71;45.55;101435.88;5065983;28;20132;-70
2022/06/15 09:44:36;;;;;;;11.57;3.40;;;;;;;24.77;46.19;101433.22;5059995;28;20063;-71
2022/06/15 09:47:22;;;;;;;11.67;4.10;;;;;;;24.90;46.04;101434.56;5057163;28;20120;-71
2022/06/15 09:50:24;;;;;;;9.15;3.45;;;;;;;24.93;44.86;101427.94;5061502;28;20079;-71
2022/06/15 09:53:12;;;;;;;11.35;4.18;;;;;;;25.11;44.79;101425.00;5055729;28;20513;-74
2022/06/15 09:55:43;;;;;;;10.45;3.70;;;;;;;25.28;44.86;101424.59;5058677;28;20084;-72
2022/06/15 09:58:38;;;;;;;14.02;4.47;;;;;;;25.43;44.35;101425.47;5058298;28;20048;-73
2022/06/15 10:01:07;;;;;;;10.30;3.47;;;;;;;25.44;44.82;101410.81;5060156;28;20056;-70
2022/06/15 10:03:42;;;;;;;10.18;3.42;;;;;;;25.58;44.00;101409.31;5056489;28;20051;-73
2022/06/15 10:06:21;;;;;;;8.45;3.80;;;;;;;25.70;44.56;101411.09;5058502;28;20462;-73
2022/06/15 10:08:48;;;;;;;13.18;3.80;;;;;;;25.81;44.39;101406.41;5051183;28;20135;-72
2022/06/15 10:11:21;;;;;;;9.18;3.30;;;;;;;25.91;43.87;101410.75;5053967;28;20057;-73
2022/06/15 10:13:47;;;;;;;10.27;3.80;;;;;;;26.03;43.91;101411.75;5063616;28;20044;-75
2022/06/15 10:16:14;;;;;;;8.55;4.07;;;;;;;26.11;43.44;101407.25;5064273;28;20056;-71
2022/06/15 10:18:48;;;;;;;13.27;3.92;;;;;;;26.11;42.96;101401.59;5057939;28;20114;-71
2022/06/15 10:21:14;;;;;;;9.75;2.60;;;;;;;26.15;42.10;101394.47;5057031;28;20052;-72
2022/06/15 10:23:47;;;;;;;16.63;4.05;;;;;;;26.16;41.87;101398.88;5054903;28;20421;-71
2022/06/15 10:26:32;;;;;;;9.35;3.60;;;;;;;26.26;41.90;101397.47;5060218;28;20052;-72
2022/06/15 10:29:22;;;;;;;9.02;3.95;;;;;;;26.25;41.65;101389.50;5054039;28;20048;-73
2022/06/15 10:32:05;;;;;;;9.27;3.42;;;;;;;26.51;41.27;101401.78;5054780;28;20346;-73
2022/06/15 10:34:36;;;;;;;10.52;4.57;;;;;;;26.58;41.31;101396.50;5060031;28;20040;-72
2022/06/15 10:37:25;;;;;;;9.55;3.47;;;;;;;26.59;40.29;101397.28;5054440;28;20135;-71
2022/06/15 10:39:55;;;;;;;9.85;3.58;;;;;;;26.71;40.45;101397.00;5059595;28;20044;-73
2022/06/15 10:42:45;;;;;;;10.13;3.45;;;;;;;26.75;40.13;101394.72;5046167;28;20574;-72
2022/06/15 10:45:20;;;;;;;9.93;3.92;;;;;;;26.95;40.23;101394.78;5059558;28;20052;-73
2022/06/15 10:47:50;;;;;;;;;;;;;;;27.06;39.46;101397.78;5060151;28;20151;-71
2022/06/15 10:50:26;;;;;;;8.57;3.30;;;;;;;27.10;39.62;101386.22;5058223;28;19955;-72
2022/06/15 10:53:30;;;;;;;9.85;3.55;;;;;;;27.29;38.48;101387.53;5054206;28;20501;-75
2022/06/15 11:04:45;;;;;;;7.72;3.03;;;;;;;27.93;37.75;101376.69;5056277;28;20414;-72
2022/06/15 11:07:26;;;;;;;10.25;3.30;;;;;;;28.02;38.31;101370.03;5051356;28;20857;-73
2022/06/15 11:09:54;;;;;;;10.88;3.13;;;;;;;28.22;38.54;101379.31;5058846;28;20114;-74
2022/06/15 11:12:51;;;;;;;10.10;2.88;;;;;;;28.43;37.97;101369.38;5051382;28;20725;-74
2022/06/15 11:15:20;;;;;;;8.90;2.92;;;;;;;28.70;37.58;101377.38;5060948;28;20054;-73
2022/06/15 11:18:03;;;;;;;9.80;3.15;;;;;;;28.78;36.63;101372.78;5057222;28;20133;-74
2022/06/15 11:20:39;;;;;;;8.57;3.15;;;;;;;28.93;36.35;101375.47;5060785;28;20052;-74
2022/06/15 11:23:16;;;;;;;13.63;3.88;;;;;;;28.99;36.30;101362.78;5061225;28;20049;-74
2022/06/15 11:25:53;;;;;;;11.10;3.50;;;;;;;29.09;36.08;101371.97;5059024;28;20604;-73
2022/06/15 11:28:25;;;;;;;9.27;3.30;;;;;;;29.09;35.75;101366.28;5063077;28;20040;-73
2022/06/15 11:31:00;;;;;;;12.25;4.03;;;;;;;28.92;34.81;101351.88;5054305;28;20052;-75
2022/06/15 11:33:37;;;;;;;11.10;3.22;;;;;;;28.51;35.60;101352.66;5054661;28;20131;-74
2022/06/15 11:36:26;;;;;;;12.82;2.92;;;;;;;28.93;35.95;101359.16;5057177;28;20048;-74
2022/06/15 11:39:15;;;;;;;9.20;3.55;;;;;;;29.58;34.91;101348.56;5051815;28;20094;-73
2022/06/15 11:41:47;;;;;;;15.77;3.75;;;;;;;30.19;35.19;101343.81;5059009;28;20049;-74
2022/06/15 11:44:18;;;;;;;12.93;3.30;;;;;;;30.75;34.36;101339.66;5049442;28;20069;-72
2022/06/15 11:46:47;;;;;;;9.35;3.00;;;;;;;31.41;33.61;101345.16;5056154;28;20053;-75
2022/06/15 11:49:25;;;;;;;8.18;3.13;;;;;;;31.77;32.61;101343.13;5051483;28;20049;-74
2022/06/15 11:52:23;;;;;;;10.18;3.30;;;;;;;32.19;31.42;101339.72;5058646;28;20053;-73
2022/06/15 11:54:52;;;;;;;8.75;3.08;;;;;;;32.32;32.23;101331.31;5061699;28;20499;-75
2022/06/15 11:57:34;;;;;;;11.77;3.13;;;;;;;32.59;31.39;101338.13;5048083;28;20051;-73